Wednesday, April 01, 2015
13:11 UTC
  |  Log In   |  Register Free
Airport Search:

South Big Horn County Airport
(KGEY)

South Big Horn County Airport Diagram
No Airport Diagram Available

FAA data valid effective March 05, 2015 - April 30, 2015 (unless otherwise noted).

 
 
 
 
 
 
 
 
 
 
 
 
 
 

Current Aviation Weather for South Big Horn County Airport (KGEY)

The most recent METAR observation for KGEY was updated at: 1209
METAR Summary (Translated METAR)
KGEY
011153Z AUTO 30019KT 10SM CLR 08/M02 A2968 RMK AO2 PK WND 31029/1132 SLP027 T00781017 10150 20078 53012 $
KU68
011155Z AUTO 30015G23KT 10SM CLR 06/M03 A2974 RMK AO2
(28.3 nm NW from KGEY)
KWRL
011153Z AUTO 33015KT 10SM CLR 08/00 A2970 RMK AO2 SLP029 T00780000 10139 20072 53015
(33.8 nm SE from KGEY)
TAF Summary (Translated TAF)
KWRL
(33.8 nm SE from KGEY)
011126Z 0112/0212 30014G20KT P6SM FEW080 SCT120 FM011500 34012G20KT P6SM VCSH SCT040 BKN060 FM020200 VRB06KT P6SM SCT060 FM020600 VRB05KT P6SM SCT040 BKN050
  Airport Weather Conditions for KGEY

Current weather conditions are
not available for GEY


The nearest NOAA weather station
is at U68, (28.3 nm NW from GEY)
  
 Current Weather at U68
43° F
Mostly Cloudy
South winds at 8.1 mph
U68 NOAA Radar

Pressure: 29.72 in
Humidity: 61%
Wind: South at 8.1 MPH (7 KT)
Dew Point: 30.2°F
Visibility: 10.00 mi


Airport Weather Forecast for KGEY

Translated METAR and TAF for KGEY
Translated METAR for KGEY (1311 UTC 01 April 2015)
found at http://aviationweather.gov/adds/metars/
 
METAR text: KGEY 011253Z AUTO 30026G31KT 10SM CLR 07/M03 A2973 RMK AO2 PK WND 31031/1253 SLP046 T00671028 $
Conditions at: KGEY (GREYBULL , WY, US) observed 1253 UTC 01 April 2015
Temperature: 6.7°C (44°F)
Dewpoint: -2.8°C (27°F) [RH = 51%]
Pressure (altimeter): 29.73 inches Hg (1006.9 mb)
[Sea-level pressure: 1004.6 mb]
Winds: from the WNW (300 degrees) at 30 MPH (26 knots; 13.5 m/s)
gusting to 36 MPH (31 knots; 16.1 m/s)
Visibility: 10 or more miles (16+ km)
Ceiling: at least 12,000 feet AGL
Clouds: sky clear below 12,000 feet AGL
Weather:
SOME DATA ABOVE MAY BE INACCURATE!!!
"$" is an indication the sensor requires maintenance
Translated TAF for KGEY

There is no translated TAF available for this airport

Find All Airport Services Find A Hotel Find A Rental Car Find A Golf Course Find A Restaurant $100 Hamburger



FBO's on the Field
FBO Company Facility Photos Services Transportation Aviation Fuel Prices: Prices include tax
Catering Weather Repair Courtesy Rental Type 100LL JetA JetA+ MOGAS 8087
 
B & G Industries, LLC

This FBO has not yet been rated
FS:Independent
Last Updated: Mar-13
Login to update fuel prices
SS:
Contact B & G Industries, LLCMore FBO Information
 
South Big Horn County Airport

This FBO has not yet been rated
FS:Independent
Last Updated: Mar-13
Login to update fuel prices
SS:
Contact South Big Horn County AirportMore FBO Information
 
Add another FBO Facility Photos Catering Weather Repair Courtesy Rental Type 100LL JetA JetA+ MOGAS 8087
Services Transportation Aviation Fuel Prices: Prices include tax


model-print
model-print
model-print
model-print